Terminal Aerodrome Forecast
Issued by NWS

Home | Current Version | Previous Version | Text Only | Print | Product List | Glossary On
Versions: 1 2 3 4 5 6 7 8 9 10 11 12 13 14 15 16 17 18 19 20 21 22 23 24
096
FTUS43 KGRR 160005 AAA
TAFLAN
TAF AMD
KLAN 160005Z 1600/1624 27006KT P6SM FEW030 OVC045
     FM160100 23005KT P6SM OVC035
     FM160400 21004KT 2SM -SN BR OVC025
     FM161000 VRB03KT 1 1/2SM -SN BR OVC025
     FM161400 09003KT 2SM BR OVC015=

USA.gov is the U.S. government's official web portal to all federal, state and local government web resources and services.